createdAt,value
2022-11-28T00:00:37.975Z,50.36
2022-11-28T00:01:38.009Z,53.96
2022-11-28T00:02:38.256Z,54.11
2022-11-28T00:03:38.143Z,51.13
2022-11-28T00:04:38.047Z,50.53
2022-11-28T00:05:40.822Z,51.85
2022-11-28T00:06:39.095Z,53.30
2022-11-28T00:07:38.062Z,50.02
2022-11-28T00:08:37.937Z,50.96
2022-11-28T00:09:37.901Z,52.37
2022-11-28T00:10:37.942Z,52.38
2022-11-28T00:11:37.952Z,50.87
2022-11-28T00:12:38.487Z,48.42
2022-11-28T00:13:38.053Z,52.51
2022-11-28T00:14:37.906Z,51.03
2022-11-28T00:15:37.906Z,50.19
2022-11-28T00:16:37.851Z,52.39
2022-11-28T00:17:37.850Z,53.38
2022-11-28T00:18:37.843Z,53.96
2022-11-28T00:19:37.874Z,56.74
2022-11-28T00:20:37.920Z,53.64
2022-11-28T00:21:37.842Z,50.60
2022-11-28T00:22:37.845Z,52.38
2022-11-28T00:23:37.847Z,56.96
2022-11-28T00:24:38.543Z,54.99
2022-11-28T00:25:37.807Z,54.09
2022-11-28T00:26:37.792Z,54.41
2022-11-28T00:27:37.807Z,54.17
2022-11-28T00:28:37.772Z,53.12
2022-11-28T00:29:37.769Z,52.55
2022-11-28T00:30:38.296Z,52.54
2022-11-28T00:31:37.805Z,50.67
2022-11-28T00:32:37.761Z,53.19
2022-11-28T00:33:38.685Z,50.74
2022-11-28T00:34:37.748Z,50.06
2022-11-28T00:35:37.733Z,50.85
2022-11-28T00:36:37.835Z,52.74
2022-11-28T00:37:38.222Z,50.60
2022-11-28T00:38:37.724Z,49.78
2022-11-28T00:39:37.741Z,50.71
2022-11-28T00:40:37.674Z,49.20
2022-11-28T00:41:37.728Z,52.41
2022-11-28T00:42:37.740Z,51.28
2022-11-28T00:43:38.135Z,51.56
2022-11-28T00:44:37.665Z,51.26
2022-11-28T00:45:37.753Z,50.81
2022-11-28T00:46:37.637Z,51.26
2022-11-28T00:47:37.671Z,50.18
2022-11-28T00:48:37.631Z,48.55
2022-11-28T00:49:37.662Z,48.69
2022-11-28T00:50:37.647Z,51.47
2022-11-28T00:51:37.626Z,51.17
2022-11-28T00:52:37.761Z,51.24
2022-11-28T00:53:37.607Z,50.39
2022-11-28T00:54:37.606Z,50.16
2022-11-28T00:55:37.603Z,50.15
2022-11-28T00:56:37.583Z,52.34
2022-11-28T00:57:37.697Z,55.85
2022-11-28T00:58:37.586Z,51.35
2022-11-28T00:59:37.578Z,52.67
2022-11-28T01:00:37.565Z,53.04
2022-11-28T01:01:37.650Z,53.23
2022-11-28T01:02:37.586Z,52.24
2022-11-28T01:03:37.585Z,51.33
2022-11-28T01:04:37.529Z,51.54
2022-11-28T01:05:38.420Z,49.69
2022-11-28T01:06:38.099Z,49.29
2022-11-28T01:07:38.093Z,50.40
2022-11-28T01:08:37.621Z,51.04
2022-11-28T01:09:37.566Z,51.65
2022-11-28T01:10:37.509Z,50.05
2022-11-28T01:11:37.630Z,56.91
2022-11-28T01:12:37.533Z,50.75
2022-11-28T01:13:37.480Z,48.54
2022-11-28T01:14:37.483Z,49.90
2022-11-28T01:15:37.463Z,50.76
2022-11-28T01:16:37.528Z,50.37
2022-11-28T01:17:37.442Z,53.05
2022-11-28T01:18:38.484Z,49.85
2022-11-28T01:19:37.475Z,48.77
2022-11-28T01:20:37.420Z,48.71
2022-11-28T01:21:37.436Z,50.23
2022-11-28T01:22:37.416Z,50.47
2022-11-28T01:23:37.402Z,49.23
2022-11-28T01:24:37.522Z,46.64
2022-11-28T01:25:37.382Z,49.43
2022-11-28T01:26:37.368Z,49.61
2022-11-28T01:27:37.392Z,50.35
2022-11-28T01:28:37.369Z,50.01
2022-11-28T01:29:37.953Z,51.32
2022-11-28T01:30:37.351Z,56.45
2022-11-28T01:31:37.447Z,51.30
2022-11-28T01:32:37.343Z,51.88
2022-11-28T01:33:37.349Z,51.11
2022-11-28T01:34:39.866Z,57.31
2022-11-28T01:35:37.321Z,51.54
2022-11-28T01:36:37.339Z,51.06
2022-11-28T01:37:37.459Z,52.26
2022-11-28T01:38:37.302Z,50.55
2022-11-28T01:39:38.731Z,50.43
2022-11-28T01:40:37.403Z,50.18
2022-11-28T01:41:37.297Z,51.57
2022-11-28T01:42:37.276Z,50.87
2022-11-28T01:43:37.272Z,53.43
2022-11-28T01:44:37.336Z,53.87
2022-11-28T01:45:37.280Z,53.50
2022-11-28T01:46:37.351Z,53.57
2022-11-28T01:47:37.258Z,51.39
2022-11-28T01:48:37.225Z,50.13
2022-11-28T01:49:37.250Z,51.03
2022-11-28T01:50:37.223Z,51.56
2022-11-28T01:51:37.213Z,52.61
2022-11-28T01:52:37.292Z,53.14
2022-11-28T01:53:37.206Z,52.51
2022-11-28T01:54:37.186Z,50.07
2022-11-28T01:55:37.244Z,52.50
2022-11-28T01:56:37.299Z,50.64
2022-11-28T01:57:37.191Z,51.51
2022-11-28T01:58:37.180Z,50.46
2022-11-28T01:59:37.168Z,49.68
2022-11-28T02:00:37.196Z,51.85
2022-11-28T02:01:37.166Z,53.03
2022-11-28T02:02:37.244Z,50.82
2022-11-28T02:03:37.139Z,50.49
2022-11-28T02:04:37.164Z,52.69
2022-11-28T02:05:37.154Z,53.80
2022-11-28T02:06:38.399Z,52.68
2022-11-28T02:07:37.219Z,53.45
2022-11-28T02:08:37.146Z,52.00
2022-11-28T02:09:37.158Z,52.56
2022-11-28T02:10:37.094Z,51.91
2022-11-28T02:11:37.083Z,50.08
2022-11-28T02:12:37.242Z,53.30
2022-11-28T02:13:37.101Z,53.97
2022-11-28T02:14:37.051Z,52.30
2022-11-28T02:15:37.081Z,52.06
2022-11-28T02:16:37.227Z,52.68
2022-11-28T02:17:37.051Z,52.20
2022-11-28T02:18:37.043Z,54.12
2022-11-28T02:19:37.068Z,55.04
2022-11-28T02:20:37.018Z,54.33
2022-11-28T02:21:37.028Z,55.02
2022-11-28T02:22:37.178Z,55.15
2022-11-28T02:23:37.028Z,52.83
2022-11-28T02:24:39.820Z,52.94
2022-11-28T02:25:38.034Z,54.90
2022-11-28T02:26:36.981Z,51.80
2022-11-28T02:27:36.986Z,52.91
2022-11-28T02:28:37.079Z,54.10
2022-11-28T02:29:37.221Z,54.82
2022-11-28T02:30:38.057Z,55.95
2022-11-28T02:31:37.314Z,54.27
2022-11-28T02:32:37.407Z,53.30
2022-11-28T02:33:36.952Z,51.70
2022-11-28T02:34:36.938Z,52.00
2022-11-28T02:35:36.925Z,54.15
2022-11-28T02:36:36.925Z,53.95
2022-11-28T02:37:36.898Z,53.24
2022-11-28T02:38:36.913Z,53.70
2022-11-28T02:39:36.906Z,53.93
2022-11-28T02:40:36.905Z,52.94
2022-11-28T02:41:36.895Z,54.53
2022-11-28T02:42:36.878Z,53.87
2022-11-28T02:43:36.882Z,53.18
2022-11-28T02:44:37.003Z,55.06
2022-11-28T02:45:36.919Z,53.60
2022-11-28T02:46:36.922Z,53.90
2022-11-28T02:47:36.896Z,55.42
2022-11-28T02:48:36.836Z,53.65
2022-11-28T02:49:36.868Z,55.20
2022-11-28T02:50:36.916Z,54.44
2022-11-28T02:51:36.817Z,54.11
2022-11-28T02:52:36.908Z,54.35
2022-11-28T02:53:36.807Z,53.82
2022-11-28T02:54:36.785Z,55.12
2022-11-28T02:55:38.716Z,55.29
2022-11-28T02:56:36.769Z,54.50
2022-11-28T02:57:36.793Z,53.47
2022-11-28T02:58:36.779Z,54.53
2022-11-28T02:59:36.784Z,56.15
2022-11-28T03:00:36.956Z,54.18
2022-11-28T03:01:36.813Z,56.00
2022-11-28T03:02:36.840Z,53.55
2022-11-28T03:03:36.771Z,54.70
2022-11-28T03:04:36.729Z,55.28
2022-11-28T03:05:37.723Z,56.08
2022-11-28T03:06:37.200Z,55.05
2022-11-28T03:07:36.820Z,54.63
2022-11-28T03:08:36.709Z,57.32
2022-11-28T03:09:36.697Z,56.03
2022-11-28T03:10:36.868Z,52.44
2022-11-28T03:11:36.681Z,55.57
2022-11-28T03:12:36.668Z,56.74
2022-11-28T03:13:36.668Z,56.38
2022-11-28T03:14:36.678Z,54.75
2022-11-28T03:15:44.822Z,55.09
2022-11-28T03:16:36.711Z,52.02
2022-11-28T03:17:36.625Z,50.58
2022-11-28T03:18:36.642Z,53.84
2022-11-28T03:19:36.629Z,52.12
2022-11-28T03:20:36.615Z,51.95
2022-11-28T03:21:36.611Z,52.70
2022-11-28T03:22:36.623Z,53.56
2022-11-28T03:23:36.600Z,53.09
2022-11-28T03:24:37.784Z,57.91
2022-11-28T03:25:36.581Z,54.32
2022-11-28T03:26:36.592Z,54.72
2022-11-28T03:27:36.642Z,53.49
2022-11-28T03:28:42.063Z,53.64
2022-11-28T03:29:37.578Z,59.81
2022-11-28T03:30:36.586Z,55.49
2022-11-28T03:31:36.728Z,53.27
2022-11-28T03:32:36.563Z,53.56
2022-11-28T03:33:36.581Z,52.02
2022-11-28T03:34:36.520Z,51.77
2022-11-28T03:35:36.511Z,54.06
2022-11-28T03:36:36.522Z,55.82
2022-11-28T03:37:36.502Z,59.18
2022-11-28T03:38:36.520Z,52.18
2022-11-28T03:39:36.495Z,51.61
2022-11-28T03:40:36.480Z,51.27
2022-11-28T03:41:36.485Z,51.78
2022-11-28T03:42:36.473Z,52.23
2022-11-28T03:43:36.485Z,51.87
2022-11-28T03:44:36.466Z,51.09
2022-11-28T03:45:36.443Z,53.76
2022-11-28T03:46:36.510Z,53.21
2022-11-28T03:47:36.558Z,53.51
2022-11-28T03:48:36.447Z,52.50
2022-11-28T03:49:36.426Z,53.10
2022-11-28T03:50:36.437Z,53.81
2022-11-28T03:51:36.420Z,52.88
2022-11-28T03:52:36.401Z,53.73
2022-11-28T03:53:36.414Z,56.27
2022-11-28T03:54:37.430Z,52.51
2022-11-28T03:55:36.465Z,52.68
2022-11-28T03:56:36.380Z,53.10
2022-11-28T03:57:36.399Z,53.15
2022-11-28T03:58:36.369Z,52.40
2022-11-28T03:59:37.149Z,53.86
2022-11-28T04:00:36.363Z,54.06
2022-11-28T04:01:36.414Z,54.66
2022-11-28T04:02:36.394Z,53.58
2022-11-28T04:03:36.452Z,52.19
2022-11-28T04:04:36.387Z,51.52
2022-11-28T04:05:36.332Z,51.86
2022-11-28T04:06:36.304Z,52.11
2022-11-28T04:07:36.371Z,52.69
2022-11-28T04:08:36.304Z,53.47
2022-11-28T04:09:36.300Z,53.24
2022-11-28T04:10:36.312Z,52.83
2022-11-28T04:11:36.295Z,53.67
2022-11-28T04:12:36.297Z,52.80
2022-11-28T04:13:36.283Z,51.74
2022-11-28T04:14:36.725Z,51.30
2022-11-28T04:15:37.596Z,51.84
2022-11-28T04:16:36.357Z,52.58
2022-11-28T04:17:36.244Z,53.08
2022-11-28T04:18:36.279Z,52.09
2022-11-28T04:19:36.382Z,52.61
2022-11-28T04:20:36.224Z,53.11
2022-11-28T04:21:36.263Z,54.62
2022-11-28T04:22:36.260Z,52.36
2022-11-28T04:23:36.239Z,52.87
2022-11-28T04:24:36.215Z,54.56
2022-11-28T04:25:36.222Z,56.09
2022-11-28T04:26:36.171Z,55.15
2022-11-28T04:27:36.197Z,53.09
2022-11-28T04:28:36.186Z,52.95
2022-11-28T04:29:36.157Z,54.43
2022-11-28T04:30:36.201Z,54.02
2022-11-28T04:31:36.194Z,53.53
2022-11-28T04:32:36.134Z,57.56
2022-11-28T04:33:36.141Z,52.96
2022-11-28T04:34:36.160Z,55.15
2022-11-28T04:35:36.237Z,54.45
2022-11-28T04:36:36.268Z,53.71
2022-11-28T04:37:36.127Z,54.09
2022-11-28T04:38:36.903Z,55.18
2022-11-28T04:39:36.089Z,55.30
2022-11-28T04:40:36.107Z,55.60
2022-11-28T04:41:36.121Z,54.90
2022-11-28T04:42:36.077Z,55.03
2022-11-28T04:43:36.073Z,52.39
2022-11-28T04:44:36.058Z,54.27
2022-11-28T04:45:36.128Z,54.36
2022-11-28T04:46:36.045Z,55.34
2022-11-28T04:47:36.032Z,54.75
2022-11-28T04:48:36.721Z,55.47
2022-11-28T04:49:36.043Z,56.11
2022-11-28T04:50:36.035Z,54.85
2022-11-28T04:51:36.238Z,55.46
2022-11-28T04:52:36.005Z,56.50
2022-11-28T04:53:36.010Z,54.33
2022-11-28T04:54:35.990Z,55.60
2022-11-28T04:55:35.994Z,55.27
2022-11-28T04:56:35.987Z,54.54
2022-11-28T04:57:35.983Z,53.42
2022-11-28T04:58:35.968Z,53.20
2022-11-28T04:59:35.985Z,54.49
2022-11-28T05:00:35.979Z,59.26
2022-11-28T05:01:35.966Z,55.06
2022-11-28T05:02:36.027Z,52.81
2022-11-28T05:03:39.857Z,54.44
2022-11-28T05:04:36.945Z,53.35
2022-11-28T05:05:35.918Z,52.36
2022-11-28T05:06:35.917Z,53.88
2022-11-28T05:07:36.017Z,53.68
2022-11-28T05:08:35.893Z,54.44
2022-11-28T05:09:35.905Z,53.26
2022-11-28T05:10:35.908Z,55.93
2022-11-28T05:11:35.901Z,55.67
2022-11-28T05:12:35.865Z,55.13
2022-11-28T05:13:35.965Z,53.61
2022-11-28T05:14:35.858Z,54.35
2022-11-28T05:15:35.860Z,54.48
2022-11-28T05:16:36.623Z,53.18
2022-11-28T05:17:41.692Z,53.62
2022-11-28T05:18:36.884Z,54.69
2022-11-28T05:19:35.844Z,56.51
2022-11-28T05:20:35.813Z,53.53
2022-11-28T05:21:35.826Z,53.52
2022-11-28T05:22:35.829Z,57.71
2022-11-28T05:23:35.921Z,55.73
2022-11-28T05:24:35.876Z,61.02
2022-11-28T05:25:35.798Z,56.94
2022-11-28T05:26:35.781Z,53.06
2022-11-28T05:27:35.794Z,53.63
2022-11-28T05:28:35.769Z,55.63
2022-11-28T05:29:35.774Z,55.50
2022-11-28T05:30:35.793Z,55.21
2022-11-28T05:31:35.853Z,52.96
2022-11-28T05:32:36.181Z,53.58
2022-11-28T05:33:35.752Z,54.77
2022-11-28T05:34:35.720Z,54.56
2022-11-28T05:35:35.724Z,55.85
2022-11-28T05:36:35.725Z,56.02
2022-11-28T05:37:35.717Z,55.14
2022-11-28T05:38:35.707Z,56.51
2022-11-28T05:39:35.832Z,55.52
2022-11-28T05:40:35.678Z,58.45
2022-11-28T05:41:35.685Z,57.32
2022-11-28T05:42:35.784Z,57.68
2022-11-28T05:43:35.683Z,57.18
2022-11-28T05:44:35.663Z,59.26
2022-11-28T05:45:35.734Z,57.46
2022-11-28T05:46:35.949Z,55.54
2022-11-28T05:47:35.654Z,54.93
2022-11-28T05:48:35.650Z,54.69
2022-11-28T05:49:35.645Z,56.99
2022-11-28T05:50:39.784Z,53.21
2022-11-28T05:51:35.631Z,54.57
2022-11-28T05:52:35.605Z,54.75
2022-11-28T05:53:35.631Z,55.67
2022-11-28T05:54:35.590Z,55.17
2022-11-28T05:55:36.490Z,54.93
2022-11-28T05:56:40.942Z,54.93
2022-11-28T05:57:37.417Z,54.68
2022-11-28T05:58:35.575Z,54.64
2022-11-28T05:59:35.590Z,55.88
2022-11-28T06:00:35.563Z,56.99
2022-11-28T06:01:35.571Z,56.96
2022-11-28T06:02:35.610Z,57.00
2022-11-28T06:03:35.575Z,55.42
2022-11-28T06:04:35.627Z,54.96
2022-11-28T06:05:42.903Z,55.95
2022-11-28T06:06:37.189Z,55.06
2022-11-28T06:07:35.568Z,54.11
2022-11-28T06:08:35.506Z,54.98
2022-11-28T06:09:35.520Z,55.99
2022-11-28T06:10:35.487Z,55.26
2022-11-28T06:11:37.362Z,55.68
2022-11-28T06:12:35.480Z,54.02
2022-11-28T06:13:35.483Z,55.60
2022-11-28T06:14:35.461Z,56.28
2022-11-28T06:15:38.307Z,55.80
2022-11-28T06:16:35.519Z,56.14
2022-11-28T06:17:35.448Z,55.19
2022-11-28T06:18:35.456Z,54.71
2022-11-28T06:19:35.423Z,56.84
2022-11-28T06:20:35.436Z,55.09
2022-11-28T06:21:35.421Z,60.09
2022-11-28T06:22:36.196Z,55.47
2022-11-28T06:23:36.394Z,55.49
2022-11-28T06:24:35.416Z,56.98
2022-11-28T06:25:35.398Z,56.61
2022-11-28T06:26:35.419Z,57.69
2022-11-28T06:27:35.489Z,58.07
2022-11-28T06:28:35.369Z,57.70
2022-11-28T06:29:35.370Z,55.18
2022-11-28T06:30:35.381Z,58.48
2022-11-28T06:31:35.707Z,60.99
2022-11-28T06:32:35.361Z,60.41
2022-11-28T06:33:35.388Z,59.27
2022-11-28T06:34:35.338Z,61.91
2022-11-28T06:35:35.338Z,57.43
2022-11-28T06:36:35.356Z,60.33
2022-11-28T06:37:35.342Z,56.98
2022-11-28T06:38:35.338Z,56.91
2022-11-28T06:39:35.298Z,60.92
2022-11-28T06:40:35.353Z,72.48
2022-11-28T06:41:35.586Z,69.69
2022-11-28T06:42:35.300Z,71.84
2022-11-28T06:43:35.405Z,64.53
2022-11-28T06:44:35.289Z,57.32
2022-11-28T06:45:35.281Z,56.07
2022-11-28T06:46:35.263Z,59.20
2022-11-28T06:47:35.250Z,58.09
2022-11-28T06:48:35.247Z,56.51
2022-11-28T06:49:35.238Z,56.48
2022-11-28T06:50:35.273Z,57.07
2022-11-28T06:51:35.258Z,58.03
2022-11-28T06:52:35.232Z,61.29
2022-11-28T06:53:35.214Z,66.06
2022-11-28T06:54:35.202Z,58.92
2022-11-28T06:55:35.202Z,57.58
2022-11-28T06:56:35.205Z,55.78
2022-11-28T06:57:35.192Z,57.74
2022-11-28T06:58:35.207Z,59.79
2022-11-28T06:59:35.282Z,58.49
2022-11-28T07:00:35.191Z,63.31
2022-11-28T07:01:35.213Z,67.50
2022-11-28T07:02:35.263Z,66.73
2022-11-28T07:03:35.170Z,67.04
2022-11-28T07:04:35.137Z,67.15
2022-11-28T07:05:35.136Z,67.19
2022-11-28T07:06:35.144Z,72.22
2022-11-28T07:07:50.012Z,70.42
2022-11-28T07:08:36.154Z,69.42
2022-11-28T07:09:35.098Z,73.56
2022-11-28T07:10:35.119Z,87.82
2022-11-28T07:11:35.101Z,87.32
2022-11-28T07:12:35.091Z,86.50
2022-11-28T07:13:35.087Z,86.22
2022-11-28T07:14:35.085Z,80.39
2022-11-28T07:15:35.091Z,85.36
2022-11-28T07:16:35.146Z,85.35
2022-11-28T07:17:35.063Z,86.46
2022-11-28T07:18:35.062Z,86.67
2022-11-28T07:19:35.043Z,86.05
2022-11-28T07:20:35.074Z,82.88
2022-11-28T07:21:35.929Z,81.79
2022-11-28T07:22:35.026Z,80.24
2022-11-28T07:23:35.043Z,78.69
2022-11-28T07:24:35.011Z,73.47
2022-11-28T07:25:35.007Z,58.83
2022-11-28T07:26:35.006Z,57.46
2022-11-28T07:27:35.001Z,67.66
2022-11-28T07:28:34.994Z,64.61
2022-11-28T07:29:34.981Z,65.57
2022-11-28T07:30:34.984Z,58.65
2022-11-28T07:31:35.140Z,55.24
2022-11-28T07:32:35.628Z,55.74
2022-11-28T07:33:35.692Z,57.58
2022-11-28T07:34:34.975Z,55.68
2022-11-28T07:35:34.941Z,56.36
2022-11-28T07:36:35.044Z,56.36
2022-11-28T07:37:34.912Z,59.39
2022-11-28T07:38:35.400Z,66.35
2022-11-28T07:39:34.903Z,67.38
2022-11-28T07:40:34.990Z,59.93
2022-11-28T07:41:35.581Z,64.80
2022-11-28T07:42:34.907Z,72.98
2022-11-28T07:43:34.889Z,69.30
2022-11-28T07:44:35.082Z,74.23
2022-11-28T07:45:53.727Z,70.28
2022-11-28T07:46:35.949Z,70.72
2022-11-28T07:47:34.872Z,70.21
2022-11-28T07:48:34.850Z,70.48
2022-11-28T07:49:34.854Z,70.18
2022-11-28T07:50:34.869Z,69.89
2022-11-28T07:51:34.820Z,69.81
2022-11-28T07:52:34.835Z,69.54
2022-11-28T07:53:34.809Z,66.55
2022-11-28T07:54:34.813Z,71.39
2022-11-28T07:55:34.822Z,71.00
2022-11-28T07:57:10.301Z,70.92
2022-11-28T07:57:36.544Z,69.99
2022-11-28T07:58:34.795Z,73.12
2022-11-28T07:59:35.008Z,72.18
2022-11-28T08:00:34.783Z,72.96
2022-11-28T08:01:34.777Z,74.51
2022-11-28T08:02:34.888Z,73.80
2022-11-28T08:03:34.847Z,70.89
2022-11-28T08:04:34.857Z,74.70
2022-11-28T08:05:34.741Z,72.27
2022-11-28T08:06:34.738Z,58.49
2022-11-28T08:07:34.772Z,56.35
2022-11-28T08:08:34.712Z,58.35
2022-11-28T08:09:34.750Z,60.36
2022-11-28T08:10:34.709Z,60.51
2022-11-28T08:11:34.698Z,60.30
2022-11-28T08:12:35.406Z,60.26
2022-11-28T08:13:34.699Z,71.78
2022-11-28T08:14:35.293Z,74.32
2022-11-28T08:15:34.696Z,73.23
2022-11-28T08:16:35.123Z,68.03
2022-11-28T08:17:34.679Z,59.35
2022-11-28T08:18:34.654Z,55.37
2022-11-28T08:19:35.458Z,58.82
2022-11-28T08:20:34.631Z,71.00
2022-11-28T08:21:34.728Z,68.66
2022-11-28T08:22:35.232Z,71.49
2022-11-28T08:23:34.620Z,69.20
2022-11-28T08:24:34.627Z,55.71
2022-11-28T08:25:34.603Z,56.65
2022-11-28T08:26:34.588Z,64.71
2022-11-28T08:27:34.611Z,55.01
2022-11-28T08:28:34.572Z,54.45
2022-11-28T08:29:36.767Z,54.72
2022-11-28T08:30:34.657Z,67.13
2022-11-28T08:31:34.593Z,59.65
2022-11-28T08:32:34.559Z,56.95
2022-11-28T08:33:34.576Z,64.50
2022-11-28T08:34:34.536Z,67.18
2022-11-28T08:35:34.572Z,56.85
2022-11-28T08:36:34.540Z,57.94
2022-11-28T08:37:34.697Z,56.09
2022-11-28T08:38:34.514Z,57.54
2022-11-28T08:39:34.522Z,57.52
2022-11-28T08:40:34.494Z,53.50
2022-11-28T08:41:34.522Z,54.45
2022-11-28T08:42:34.503Z,56.10
2022-11-28T08:43:34.489Z,63.06
2022-11-28T08:44:34.496Z,53.72
2022-11-28T08:45:34.512Z,51.09
2022-11-28T08:46:35.425Z,53.69
2022-11-28T08:47:34.523Z,55.36
2022-11-28T08:48:34.446Z,53.68
2022-11-28T08:49:34.458Z,54.77
2022-11-28T08:50:34.436Z,55.16
2022-11-28T08:51:35.128Z,52.58
2022-11-28T08:52:34.425Z,55.57
2022-11-28T08:53:34.435Z,57.17
2022-11-28T08:54:34.610Z,55.20
2022-11-28T08:55:37.936Z,55.31
2022-11-28T08:56:35.501Z,54.88
2022-11-28T08:57:34.582Z,55.65
2022-11-28T08:58:34.377Z,57.78
2022-11-28T08:59:34.390Z,58.97
2022-11-28T09:00:34.511Z,59.14
2022-11-28T09:01:34.526Z,63.62
2022-11-28T09:02:34.391Z,58.92
2022-11-28T09:03:34.414Z,56.39
2022-11-28T09:04:34.354Z,53.75
2022-11-28T09:05:34.340Z,64.78
2022-11-28T09:06:34.353Z,59.01
2022-11-28T09:07:34.431Z,56.79
2022-11-28T09:08:34.344Z,54.27
2022-11-28T09:09:34.328Z,57.00
2022-11-28T09:10:34.308Z,55.19
2022-11-28T09:11:34.307Z,62.41
2022-11-28T09:12:34.310Z,56.63
2022-11-28T09:13:34.288Z,56.88
2022-11-28T09:14:34.276Z,66.24
2022-11-28T09:15:34.306Z,58.02
2022-11-28T09:16:34.384Z,58.58
2022-11-28T09:17:34.265Z,66.70
2022-11-28T09:18:34.258Z,65.39
2022-11-28T09:19:34.706Z,66.41
2022-11-28T09:20:34.250Z,64.22
2022-11-28T09:21:34.230Z,61.22
2022-11-28T09:22:34.253Z,65.06
2022-11-28T09:23:34.248Z,71.33
2022-11-28T09:24:34.253Z,68.91
2022-11-28T09:25:34.980Z,70.12
2022-11-28T09:26:34.222Z,67.95
2022-11-28T09:27:34.195Z,72.47
2022-11-28T09:28:34.201Z,67.86
2022-11-28T09:29:34.192Z,69.02
2022-11-28T09:30:34.477Z,69.33
2022-11-28T09:31:34.749Z,66.41
2022-11-28T09:32:55.201Z,65.77
2022-11-28T09:33:34.152Z,68.09
2022-11-28T09:34:34.183Z,60.29
2022-11-28T09:35:34.131Z,65.71
2022-11-28T09:36:34.157Z,70.24
2022-11-28T09:37:34.132Z,67.50
2022-11-28T09:38:34.119Z,68.89
2022-11-28T09:39:44.273Z,67.77
2022-11-28T09:40:35.163Z,65.93
2022-11-28T09:41:34.102Z,66.41
2022-11-28T09:42:34.099Z,70.93
2022-11-28T09:43:34.149Z,65.19
2022-11-28T09:44:34.080Z,60.21
2022-11-28T09:45:34.103Z,64.21
2022-11-28T09:46:34.193Z,66.87
2022-11-28T09:47:34.050Z,67.17
2022-11-28T09:48:34.067Z,69.88
2022-11-28T09:49:55.049Z,67.82
2022-11-28T09:50:34.043Z,64.66
2022-11-28T09:51:34.042Z,70.06
2022-11-28T09:52:34.126Z,66.88
2022-11-28T09:53:34.016Z,64.58
2022-11-28T09:54:34.054Z,65.84
2022-11-28T09:55:34.087Z,66.59
2022-11-28T09:56:33.998Z,65.87
2022-11-28T09:57:33.978Z,65.22
2022-11-28T09:58:34.029Z,65.78
2022-11-28T09:59:33.983Z,65.50
2022-11-28T10:00:33.983Z,64.92
2022-11-28T10:01:33.974Z,66.04
2022-11-28T10:02:33.961Z,64.43
2022-11-28T10:03:34.019Z,65.16
2022-11-28T10:04:34.588Z,64.24
2022-11-28T10:05:33.928Z,64.84
2022-11-28T10:06:33.942Z,64.36
2022-11-28T10:07:33.976Z,63.84
2022-11-28T10:08:33.929Z,63.35
2022-11-28T10:09:33.935Z,64.31
2022-11-28T10:10:33.922Z,64.45
2022-11-28T10:11:33.924Z,62.23
2022-11-28T10:12:34.556Z,61.36
2022-11-28T10:13:59.810Z,61.66
2022-11-28T10:14:34.888Z,62.79
2022-11-28T10:15:33.859Z,65.46
2022-11-28T10:16:33.942Z,62.61
2022-11-28T10:17:33.863Z,63.37
2022-11-28T10:18:33.853Z,63.06
2022-11-28T10:19:55.405Z,63.21
2022-11-28T10:20:35.199Z,61.80
2022-11-28T10:21:40.938Z,63.36
2022-11-28T10:22:33.833Z,63.30
2022-11-28T10:23:33.821Z,62.53
2022-11-28T10:24:33.831Z,62.40
2022-11-28T10:25:33.792Z,62.22
2022-11-28T10:26:33.816Z,62.68
2022-11-28T10:27:33.817Z,62.97
2022-11-28T10:28:33.782Z,62.50
2022-11-28T10:29:33.782Z,63.32
2022-11-28T10:30:34.405Z,63.23
2022-11-28T10:31:33.753Z,69.13
2022-11-28T10:32:33.866Z,58.23
2022-11-28T10:33:33.851Z,56.51
2022-11-28T10:34:33.754Z,58.58
2022-11-28T10:35:33.746Z,63.19
2022-11-28T10:36:33.737Z,65.36
2022-11-28T10:37:33.737Z,54.71
2022-11-28T10:38:33.715Z,56.18
2022-11-28T10:39:33.760Z,61.51
2022-11-28T10:40:34.241Z,66.36
2022-11-28T10:41:34.160Z,56.14
2022-11-28T10:42:33.715Z,62.75
2022-11-28T10:43:33.739Z,69.19
2022-11-28T10:44:33.783Z,71.30
2022-11-28T10:45:48.246Z,72.79
2022-11-28T10:46:33.832Z,72.75
2022-11-28T10:47:33.665Z,72.94
2022-11-28T10:48:41.368Z,73.86
2022-11-28T10:49:34.655Z,74.04
2022-11-28T10:50:33.930Z,74.06
2022-11-28T10:51:33.629Z,72.21
2022-11-28T10:52:33.776Z,70.65
2022-11-28T10:53:33.651Z,69.89
2022-11-28T10:54:33.636Z,63.48
2022-11-28T10:55:33.673Z,58.71
2022-11-28T10:56:33.607Z,57.35
2022-11-28T10:57:33.612Z,56.99
2022-11-28T10:58:33.666Z,57.10
2022-11-28T10:59:33.633Z,58.02
2022-11-28T11:00:33.590Z,59.37
2022-11-28T11:01:33.654Z,66.97
2022-11-28T11:02:33.749Z,60.18
2022-11-28T11:03:33.621Z,57.48
2022-11-28T11:04:33.670Z,54.47
2022-11-28T11:05:33.590Z,67.07
2022-11-28T11:06:41.624Z,54.82
2022-11-28T11:07:34.619Z,59.01
2022-11-28T11:08:33.545Z,67.55
2022-11-28T11:09:33.521Z,71.92
2022-11-28T11:10:33.557Z,71.53
2022-11-28T11:11:33.511Z,74.39
2022-11-28T11:12:33.517Z,66.09
2022-11-28T11:13:33.790Z,54.85
2022-11-28T11:14:33.506Z,53.93
2022-11-28T11:15:33.613Z,52.75
2022-11-28T11:16:33.512Z,54.92
2022-11-28T11:17:36.276Z,56.40
2022-11-28T11:18:33.517Z,54.57
2022-11-28T11:19:33.446Z,57.62
2022-11-28T11:20:33.478Z,64.82
2022-11-28T11:21:33.451Z,60.65
2022-11-28T11:22:33.501Z,62.41
2022-11-28T11:23:41.285Z,69.73
2022-11-28T11:24:33.478Z,63.46
2022-11-28T11:25:33.406Z,63.88
2022-11-28T11:26:33.422Z,71.88
2022-11-28T11:27:33.408Z,72.63
2022-11-28T11:28:33.398Z,62.07
2022-11-28T11:29:33.395Z,58.15
2022-11-28T11:30:33.567Z,61.50
2022-11-28T11:31:33.458Z,58.06
2022-11-28T11:32:33.389Z,57.42
2022-11-28T11:33:33.367Z,56.21
2022-11-28T11:34:33.451Z,56.05
2022-11-28T11:35:33.368Z,57.15
2022-11-28T11:36:33.355Z,54.26
2022-11-28T11:37:33.333Z,52.89
2022-11-28T11:38:37.496Z,52.63
2022-11-28T11:39:33.321Z,51.39
2022-11-28T11:40:33.338Z,51.66
2022-11-28T11:41:33.324Z,54.22
2022-11-28T11:42:33.328Z,60.21
2022-11-28T11:43:33.325Z,53.77
2022-11-28T11:44:33.307Z,50.43
2022-11-28T11:45:33.296Z,50.38
2022-11-28T11:46:33.592Z,50.55
2022-11-28T11:47:33.381Z,53.13
2022-11-28T11:48:33.266Z,54.04
2022-11-28T11:49:33.251Z,69.17
2022-11-28T11:50:33.279Z,69.73
2022-11-28T11:51:38.085Z,53.33
2022-11-28T11:52:34.260Z,56.53
2022-11-28T11:53:33.245Z,61.65
2022-11-28T11:54:33.232Z,61.39
2022-11-28T11:55:33.226Z,61.45
2022-11-28T11:56:33.234Z,62.70
2022-11-28T11:57:34.346Z,62.15
2022-11-28T11:58:33.217Z,63.42
2022-11-28T11:59:33.668Z,64.15
2022-11-28T12:00:33.214Z,60.88
2022-11-28T12:01:33.185Z,60.93
2022-11-28T12:02:33.401Z,61.85
2022-11-28T12:03:33.412Z,65.99
2022-11-28T12:04:49.029Z,60.52
2022-11-28T12:05:52.325Z,60.95
2022-11-28T12:06:34.149Z,66.66
2022-11-28T12:07:34.051Z,66.69
2022-11-28T12:08:33.147Z,62.24
2022-11-28T12:09:33.125Z,65.19
2022-11-28T12:10:33.139Z,60.69
2022-11-28T12:11:33.112Z,62.65
2022-11-28T12:12:33.126Z,63.27
2022-11-28T12:13:33.106Z,62.74
2022-11-28T12:14:33.095Z,61.73
2022-11-28T12:15:33.098Z,61.75
2022-11-28T12:16:33.126Z,68.02
2022-11-28T12:17:48.288Z,61.67
2022-11-28T12:18:34.057Z,64.74
2022-11-28T12:19:33.104Z,71.28
2022-11-28T12:20:33.045Z,63.45
2022-11-28T12:21:33.045Z,63.87
2022-11-28T12:22:33.060Z,63.36
2022-11-28T12:23:33.037Z,60.24
2022-11-28T12:24:33.055Z,49.43
2022-11-28T12:25:33.056Z,52.25
2022-11-28T12:26:33.073Z,50.47
2022-11-28T12:27:33.029Z,65.78
2022-11-28T12:28:33.006Z,66.63
2022-11-28T12:29:33.003Z,58.48
2022-11-28T12:30:32.996Z,54.43
2022-11-28T12:31:33.080Z,53.26
2022-11-28T12:32:32.983Z,54.24
2022-11-28T12:33:32.971Z,54.23
2022-11-28T12:34:32.971Z,54.79
2022-11-28T12:35:33.286Z,59.64
2022-11-28T12:36:32.952Z,53.24
2022-11-28T12:37:54.685Z,56.50
2022-11-28T12:38:33.932Z,52.33
2022-11-28T12:39:32.945Z,52.47
2022-11-28T12:40:32.940Z,52.16
2022-11-28T12:41:33.005Z,58.19
2022-11-28T12:42:32.920Z,57.61
2022-11-28T12:43:32.910Z,57.50
2022-11-28T12:44:32.904Z,58.22
2022-11-28T12:45:32.910Z,58.97
2022-11-28T12:46:32.920Z,58.96
2022-11-28T12:47:32.885Z,61.91
2022-11-28T12:48:32.880Z,60.49
2022-11-28T12:49:32.895Z,60.54
2022-11-28T12:50:32.863Z,57.07
2022-11-28T12:51:32.902Z,62.33
2022-11-28T12:52:32.838Z,60.67